Hlavní strana
METAR-TAF:

METAR-TAF

Letiště :

Letiště Pardubice

Pardubice, Česká republika

zeměpisná šířka: 50-00-48N, zeměpisná délka: 15-44-19E, výška: 226 m

Aktuální stav počasí

Zpráva byla vytvořena před 1 hodinou a 5 minutami, v 04:00 UTC
Východojihovýchodní vítr 1 kt
Teplota 12°C
Vlhkost vzduchu 82%
Tlak 1021 hPa
Viditelnost 10 km a více
Žádná oblačnost pod 1500 m, nevyskytují se cumulonimby.

METAR: LKPD 270400Z 11001KT CAVOK 12/09 Q1021 NOSIG RMK BLU BLU

Čas: 07:05 (05:05 UTC)

Předpověď počasí

Zpráva byla vytvořena před 6 hodinami a 5 minutami, v 23:00 UTC
Předpověď platná od 27 v 00 UTC do 28 v 00 UTC
vítr z různých směrů 2 kt
Viditelnost 10 km a více
Žádná oblačnost pod 1500 m, nevyskytují se cumulonimby.
Změna
od 27 v 05 UTC do 27 v 07 UTC
Východní vítr 6 kt
Dočasný
od 27 v 09 UTC do 27 v 15 UTC
Polojasno ve výšce 4500 ft, Vertikální cumulus.

TAF: LKPD 262300Z 2700/2800 VRB02KT CAVOK BECMG 2705/2707 10006KT TEMPO 2709/2715 SCT045TCU

Stav a předpovědi počasí z více než 4 000 letišť (zprávy METAR a TAF).

Červené a žluté tečky na mapě představují dostupné meteorologické stanice.

Když kurzor umístíte na tečku, zobrazí se název stanice.

Pak kliknutím zobrazíte stav a předpověď počasí.

Chcete-li změnit mapu, kliknutím na zelené tlačítko se znaménkem +mapu přiblížíte, kliknutím na zelené tlačítko se znaménkem – mapu oddálíte a kliknutím na zelené šipky přejdete na sousední mapy.


METAR-TAF: